createdAt,value
2018-09-01T00:00:51.231Z,96.1
2018-09-01T00:05:50.126Z,97
2018-09-01T00:10:50.289Z,93.7
2018-09-01T00:15:50.408Z,94.7
2018-09-01T00:21:03.172Z,94.5
2018-09-01T00:26:02.893Z,96.7
2018-09-01T00:31:02.985Z,98.2
2018-09-01T00:36:03.063Z,99.6
2018-09-01T00:41:02.916Z,99.9
2018-09-01T00:46:02.887Z,98.6
2018-09-01T00:51:03.036Z,94.3
2018-09-01T00:56:08.226Z,98.3
2018-09-01T01:01:08.142Z,97.2
2018-09-01T01:06:20.256Z,94.4
2018-09-01T01:11:19.970Z,95.3
2018-09-01T01:16:20.007Z,97.1
2018-09-01T01:21:19.768Z,94
2018-09-01T01:26:19.933Z,93.6
2018-09-01T01:31:19.809Z,94.8
2018-09-01T01:36:19.944Z,95.2
2018-09-01T01:41:20.001Z,96.2
2018-09-01T01:46:19.832Z,95
2018-09-01T01:51:19.845Z,96.1
2018-09-01T01:56:19.816Z,95.7
2018-09-01T02:01:19.819Z,96.1
2018-09-01T02:06:19.859Z,96.8
2018-09-01T02:11:20.100Z,96.8
2018-09-01T02:16:34.860Z,96
2018-09-01T02:21:34.800Z,97.5
2018-09-01T02:26:34.588Z,96.8
2018-09-01T02:31:34.601Z,97.1
2018-09-01T02:36:34.592Z,94.5
2018-09-01T02:41:34.729Z,97.6
2018-09-01T02:46:34.764Z,97.6
2018-09-01T02:51:34.584Z,98.2
2018-09-01T02:56:34.717Z,98.9
2018-09-01T03:01:46.861Z,97.7
2018-09-01T03:06:46.784Z,97.8
2018-09-01T03:11:46.810Z,96.9
2018-09-01T03:16:46.714Z,99.2
2018-09-01T03:21:46.608Z,98.4
2018-09-01T03:26:46.607Z,98.5
2018-09-01T03:31:46.737Z,98
2018-09-01T03:36:46.603Z,100
2018-09-01T03:41:46.805Z,100
2018-09-01T03:46:46.736Z,100
2018-09-01T03:51:46.739Z,100
2018-09-01T03:56:46.619Z,100
2018-09-01T04:01:47.273Z,100
2018-09-01T04:06:47.159Z,100
2018-09-01T04:12:00.135Z,100
2018-09-01T04:17:00.072Z,100
2018-09-01T04:22:00.106Z,100
2018-09-01T04:26:59.868Z,100
2018-09-01T04:32:00.250Z,100
2018-09-01T04:36:59.982Z,100
2018-09-01T04:42:00.008Z,99.6
2018-09-01T04:47:00.866Z,99.3
2018-09-01T04:52:00.607Z,98.5
2018-09-01T04:57:13.293Z,99.6
2018-09-01T05:02:13.264Z,99.9
2018-09-01T05:07:13.018Z,100
2018-09-01T05:12:13.232Z,100
2018-09-01T05:17:13.298Z,100
2018-09-01T05:22:13.029Z,100
2018-09-01T05:27:13.236Z,100
2018-09-01T05:32:13.276Z,100
2018-09-01T05:37:13.216Z,100
2018-09-01T05:42:13.221Z,100
2018-09-01T05:47:13.286Z,100
2018-09-01T05:52:13.183Z,100
2018-09-01T05:57:13.880Z,100
2018-09-01T06:02:13.759Z,100
2018-09-01T06:07:27.016Z,100
2018-09-01T06:12:26.714Z,100
2018-09-01T06:17:26.817Z,100
2018-09-01T06:22:26.734Z,100
2018-09-01T06:27:26.739Z,100
2018-09-01T06:32:26.748Z,100
2018-09-01T06:37:26.939Z,100
2018-09-01T06:42:26.868Z,100
2018-09-01T06:47:26.921Z,100
2018-09-01T06:52:38.987Z,99.9
2018-09-01T06:57:38.950Z,99.2
2018-09-01T07:02:38.852Z,100
2018-09-01T07:07:38.707Z,100
2018-09-01T07:12:38.702Z,100
2018-09-01T07:17:38.981Z,99.5
2018-09-01T07:22:38.731Z,99.9
2018-09-01T07:27:38.748Z,99.5
2018-09-01T07:32:38.733Z,99.8
2018-09-01T07:37:50.033Z,100
2018-09-01T07:42:49.769Z,100
2018-09-01T07:47:49.923Z,100
2018-09-01T07:52:49.990Z,100
2018-09-01T07:57:49.816Z,100
2018-09-01T08:02:49.987Z,100
2018-09-01T08:07:49.980Z,100
2018-09-01T08:12:50.553Z,100
2018-09-01T08:17:50.434Z,100
2018-09-01T08:23:03.044Z,100
2018-09-01T08:28:03.026Z,100
2018-09-01T08:33:02.729Z,100
2018-09-01T08:38:02.734Z,100
2018-09-01T08:43:02.747Z,100
2018-09-01T08:48:02.784Z,100
2018-09-01T08:53:02.778Z,100
2018-09-01T08:58:02.799Z,100
2018-09-01T09:03:02.776Z,100
2018-09-01T09:08:13.963Z,100
2018-09-01T09:13:13.701Z,100
2018-09-01T09:18:13.697Z,100
2018-09-01T09:23:13.713Z,100
2018-09-01T09:28:14.087Z,100
2018-09-01T09:33:13.706Z,100
2018-09-01T09:38:13.729Z,99.3
2018-09-01T09:43:13.723Z,99
2018-09-01T09:48:13.851Z,99.4
2018-09-01T09:53:14.009Z,99.4
2018-09-01T09:58:13.963Z,98.9
2018-09-01T10:03:13.905Z,99.8
2018-09-01T10:08:16.061Z,98.7
2018-09-01T10:13:15.810Z,100
2018-09-01T10:18:28.310Z,98.7
2018-09-01T10:23:28.010Z,99.5
2018-09-01T10:28:28.015Z,98.5
2018-09-01T10:33:27.936Z,97.4
2018-09-01T10:38:28.151Z,98.8
2018-09-01T10:43:28.003Z,98.7
2018-09-01T10:48:27.994Z,98.4
2018-09-01T10:53:29.557Z,97.5
2018-09-01T10:58:29.347Z,98.4
2018-09-01T11:03:42.386Z,98.1
2018-09-01T11:08:42.129Z,99.7
2018-09-01T11:13:42.271Z,100
2018-09-01T11:18:42.149Z,100
2018-09-01T11:23:42.152Z,99.1
2018-09-01T11:28:42.163Z,100
2018-09-01T11:33:42.217Z,99
2018-09-01T11:38:42.151Z,99.5
2018-09-01T11:43:42.123Z,99.9
2018-09-01T11:48:42.226Z,100
2018-09-01T11:53:42.396Z,100
2018-09-01T11:58:42.377Z,100
2018-09-01T12:03:42.178Z,100
2018-09-01T12:08:42.271Z,100
2018-09-01T12:13:54.370Z,100
2018-09-01T12:18:54.126Z,100
2018-09-01T12:23:54.111Z,98.6
2018-09-01T12:28:54.541Z,98.6
2018-09-01T12:33:54.120Z,99.7
2018-09-01T12:38:54.109Z,99.3
2018-09-01T12:43:54.127Z,98.9
2018-09-01T12:48:54.307Z,99.7
2018-09-01T12:53:54.104Z,99.1
2018-09-01T12:59:05.452Z,98.9
2018-09-01T13:04:05.103Z,99.7
2018-09-01T13:09:05.127Z,99.9
2018-09-01T13:14:05.157Z,98.5
2018-09-01T13:19:05.155Z,98.4
2018-09-01T13:29:05.139Z,98.7
2018-09-01T13:34:09.353Z,96.4
2018-09-01T13:39:10.203Z,97.8
2018-09-01T13:44:22.442Z,98.1
2018-09-01T13:49:21.585Z,98.7
2018-09-01T13:54:21.630Z,98.7
2018-09-01T13:59:21.570Z,97.3
2018-09-01T14:04:21.393Z,97.4
2018-09-01T14:09:21.410Z,100
2018-09-01T14:14:21.541Z,98
2018-09-01T14:19:21.709Z,98.8
2018-09-01T14:24:22.399Z,99.8
2018-09-01T14:29:34.262Z,99.5
2018-09-01T14:34:33.837Z,99.8
2018-09-01T14:39:34.812Z,99.2
2018-09-01T14:44:33.894Z,100
2018-09-01T14:49:33.885Z,99.9
2018-09-01T14:54:34.645Z,99.6
2018-09-01T14:59:35.153Z,99.9
2018-09-01T15:04:33.914Z,99.1
2018-09-01T15:09:33.874Z,100
2018-09-01T15:14:45.840Z,100
2018-09-01T15:19:45.570Z,100
2018-09-01T15:24:45.537Z,100
2018-09-01T15:29:45.661Z,100
2018-09-01T15:34:48.788Z,100
2018-09-01T15:39:45.713Z,100
2018-09-01T15:44:45.897Z,100
2018-09-01T15:49:45.684Z,100
2018-09-01T15:54:45.697Z,100
2018-09-01T15:59:46.158Z,100
2018-09-01T16:04:45.683Z,100
2018-09-01T16:09:46.312Z,100
2018-09-01T16:14:51.117Z,100
2018-09-01T16:19:49.683Z,100
2018-09-01T16:25:02.509Z,100
2018-09-01T16:30:02.357Z,100
2018-09-01T16:35:02.412Z,100
2018-09-01T16:40:02.191Z,100
2018-09-01T16:45:02.376Z,100
2018-09-01T16:50:03.097Z,100
2018-09-01T16:55:03.108Z,100
2018-09-01T17:00:06.610Z,100
2018-09-01T17:05:06.294Z,100
2018-09-01T17:10:20.500Z,100
2018-09-01T17:15:20.465Z,100
2018-09-01T17:20:20.276Z,100
2018-09-01T17:25:20.301Z,100
2018-09-01T17:30:20.262Z,100
2018-09-01T17:35:20.287Z,100
2018-09-01T17:40:20.223Z,100
2018-09-01T17:45:20.279Z,100
2018-09-01T17:50:20.183Z,100
2018-09-01T17:55:31.612Z,100
2018-09-01T18:00:31.316Z,100
2018-09-01T18:05:31.300Z,100
2018-09-01T18:10:31.301Z,100
2018-09-01T18:15:31.324Z,100
2018-09-01T18:20:31.388Z,100
2018-09-01T18:25:31.309Z,100
2018-09-01T18:30:31.316Z,100
2018-09-01T18:35:31.307Z,100
2018-09-01T18:40:31.328Z,100
2018-09-01T18:45:31.362Z,100
2018-09-01T18:50:31.324Z,100
2018-09-01T18:55:31.323Z,100
2018-09-01T19:00:31.346Z,100
2018-09-01T19:05:43.198Z,100
2018-09-01T19:10:42.943Z,100
2018-09-01T19:15:42.922Z,100
2018-09-01T19:20:42.937Z,100
2018-09-01T19:25:43.151Z,100
2018-09-01T19:30:43.092Z,100
2018-09-01T19:35:42.938Z,100
2018-09-01T19:40:44.200Z,100
2018-09-01T19:45:43.960Z,100
2018-09-01T19:50:56.598Z,100
2018-09-01T19:55:56.225Z,100
2018-09-01T20:00:56.235Z,100
2018-09-01T20:05:56.209Z,100
2018-09-01T20:10:56.218Z,100
2018-09-01T20:15:56.227Z,100
2018-09-01T20:20:56.222Z,100
2018-09-01T20:25:56.197Z,100
2018-09-01T20:30:56.245Z,100
2018-09-01T20:35:57.687Z,100
2018-09-01T20:40:57.540Z,100
2018-09-01T20:45:57.415Z,100
2018-09-01T20:50:57.420Z,100
2018-09-01T20:55:57.397Z,100
2018-09-01T21:00:57.401Z,100
2018-09-01T21:05:57.411Z,100
2018-09-01T21:10:57.446Z,100
2018-09-01T21:15:57.957Z,100
2018-09-01T21:21:08.910Z,100
2018-09-01T21:26:08.578Z,100
2018-09-01T21:31:08.833Z,100
2018-09-01T21:36:08.659Z,100
2018-09-01T21:41:08.651Z,100
2018-09-01T21:46:08.631Z,100
2018-09-01T21:51:08.623Z,100
2018-09-01T21:56:10.723Z,100
2018-09-01T22:01:10.505Z,100
2018-09-01T22:06:22.681Z,100
2018-09-01T22:11:22.386Z,100
2018-09-01T22:16:22.378Z,100
2018-09-01T22:21:22.368Z,100
2018-09-01T22:26:22.412Z,100
2018-09-01T22:31:22.629Z,100
2018-09-01T22:36:22.414Z,100
2018-09-01T22:41:22.369Z,100
2018-09-01T22:46:22.434Z,100
2018-09-01T22:51:34.082Z,100
2018-09-01T22:56:33.708Z,100
2018-09-01T23:01:33.717Z,100
2018-09-01T23:06:33.747Z,100
2018-09-01T23:11:33.710Z,100
2018-09-01T23:16:33.725Z,100
2018-09-01T23:21:33.733Z,100
2018-09-01T23:26:38.950Z,100
2018-09-01T23:31:38.674Z,100
2018-09-01T23:36:50.690Z,100
2018-09-01T23:41:50.442Z,100
2018-09-01T23:46:50.392Z,100
2018-09-01T23:51:50.627Z,100
2018-09-01T23:56:50.657Z,100
